createdAt,value
2019-03-22T00:00:28.330Z,22.02
2019-03-22T00:01:27.281Z,22.00
2019-03-22T00:02:25.612Z,22.02
2019-03-22T00:03:26.037Z,22.06
2019-03-22T00:04:25.509Z,22.04
2019-03-22T00:05:26.018Z,22.04
2019-03-22T00:06:26.913Z,22.00
2019-03-22T00:07:26.208Z,21.99
2019-03-22T00:08:25.803Z,22.06
2019-03-22T00:09:26.063Z,21.99
2019-03-22T00:10:29.957Z,21.96
2019-03-22T00:11:25.657Z,22.04
2019-03-22T00:12:26.034Z,22.00
2019-03-22T00:13:26.896Z,22.02
2019-03-22T00:14:25.829Z,21.99
2019-03-22T00:15:26.732Z,22.04
2019-03-22T00:16:27.852Z,22.04
2019-03-22T00:17:26.394Z,21.98
2019-03-22T00:18:25.902Z,21.96
2019-03-22T00:19:25.830Z,22.02
2019-03-22T00:20:29.698Z,22.04
2019-03-22T00:21:25.881Z,22.02
2019-03-22T00:22:27.868Z,22.02
2019-03-22T00:23:25.784Z,22.02
2019-03-22T00:24:25.245Z,22.04
2019-03-22T00:25:25.347Z,21.98
2019-03-22T00:26:25.813Z,21.96
2019-03-22T00:27:27.211Z,21.99
2019-03-22T00:28:27.530Z,22.00
2019-03-22T00:29:25.336Z,22.00
2019-03-22T00:30:25.181Z,21.95
2019-03-22T00:31:25.197Z,21.98
2019-03-22T00:32:27.864Z,21.98
2019-03-22T00:33:25.168Z,21.99
2019-03-22T00:34:25.448Z,22.02
2019-03-22T00:35:25.641Z,22.11
2019-03-22T00:36:27.309Z,21.99
2019-03-22T00:37:26.783Z,22.02
2019-03-22T00:38:29.744Z,22.02
2019-03-22T00:39:26.770Z,22.00
2019-03-22T00:40:28.947Z,22.04
2019-03-22T00:41:25.515Z,21.98
2019-03-22T00:42:26.599Z,22.00
2019-03-22T00:43:25.331Z,22.06
2019-03-22T00:44:26.312Z,22.02
2019-03-22T00:45:25.659Z,22.02
2019-03-22T00:46:25.114Z,21.99
2019-03-22T00:47:25.255Z,22.00
2019-03-22T00:48:29.976Z,21.96
2019-03-22T00:49:27.583Z,21.99
2019-03-22T00:50:24.967Z,21.98
2019-03-22T00:51:26.742Z,21.98
2019-03-22T00:52:26.483Z,22.02
2019-03-22T00:53:25.065Z,22.06
2019-03-22T00:54:25.218Z,21.96
2019-03-22T00:55:27.646Z,21.99
2019-03-22T00:56:25.015Z,21.96
2019-03-22T00:57:28.771Z,21.93
2019-03-22T00:58:26.470Z,21.98
2019-03-22T00:59:29.362Z,21.99
2019-03-22T01:00:26.466Z,22.00
2019-03-22T01:01:24.852Z,22.00
2019-03-22T01:02:25.914Z,22.00
2019-03-22T01:03:27.531Z,21.95
2019-03-22T01:04:28.762Z,21.96
2019-03-22T01:05:26.546Z,22.00
2019-03-22T01:06:25.011Z,22.00
2019-03-22T01:07:25.494Z,22.02
2019-03-22T01:08:26.451Z,21.98
2019-03-22T01:09:30.406Z,21.93
2019-03-22T01:10:27.212Z,21.98
2019-03-22T01:11:25.275Z,22.00
2019-03-22T01:12:25.907Z,22.06
2019-03-22T01:13:25.927Z,21.98
2019-03-22T01:14:25.407Z,22.02
2019-03-22T01:15:28.834Z,21.95
2019-03-22T01:16:29.558Z,21.96
2019-03-22T01:17:25.898Z,22.00
2019-03-22T01:18:24.839Z,22.04
2019-03-22T01:19:29.305Z,22.02
2019-03-22T01:20:25.365Z,22.00
2019-03-22T01:21:26.965Z,22.02
2019-03-22T01:22:27.731Z,22.00
2019-03-22T01:23:26.465Z,22.00
2019-03-22T01:24:25.928Z,21.99
2019-03-22T01:25:24.690Z,21.99
2019-03-22T01:26:30.071Z,21.99
2019-03-22T01:27:24.949Z,21.95
2019-03-22T01:28:25.995Z,22.00
2019-03-22T01:29:24.920Z,21.99
2019-03-22T01:30:25.229Z,22.02
2019-03-22T01:31:25.256Z,21.98
2019-03-22T01:32:24.494Z,21.96
2019-03-22T01:33:24.703Z,21.95
2019-03-22T01:34:24.729Z,22.06
2019-03-22T01:35:24.672Z,21.93
2019-03-22T01:36:24.663Z,21.99
2019-03-22T01:37:24.672Z,22.06
2019-03-22T01:38:25.404Z,22.02
2019-03-22T01:39:24.498Z,21.96
2019-03-22T01:40:26.692Z,21.95
2019-03-22T01:41:24.733Z,21.93
2019-03-22T01:42:28.543Z,22.00
2019-03-22T01:43:26.930Z,22.02
2019-03-22T01:44:24.816Z,22.00
2019-03-22T01:45:24.830Z,22.02
2019-03-22T01:46:24.620Z,21.96
2019-03-22T01:47:25.592Z,21.95
2019-03-22T01:48:25.698Z,21.99
2019-03-22T01:49:29.461Z,22.04
2019-03-22T01:50:25.639Z,22.00
2019-03-22T01:51:25.013Z,21.99
2019-03-22T01:52:26.668Z,22.02
2019-03-22T01:53:24.333Z,21.95
2019-03-22T01:54:24.252Z,21.96
2019-03-22T01:55:26.704Z,21.91
2019-03-22T01:56:24.725Z,21.95
2019-03-22T01:57:24.947Z,21.98
2019-03-22T01:58:26.539Z,21.99
2019-03-22T01:59:26.362Z,21.99
2019-03-22T02:00:24.830Z,21.93
2019-03-22T02:01:24.192Z,21.96
2019-03-22T02:02:24.876Z,21.96
2019-03-22T02:03:24.535Z,21.91
2019-03-22T02:04:26.431Z,21.98
2019-03-22T02:05:24.857Z,21.95
2019-03-22T02:06:24.131Z,21.91
2019-03-22T02:07:25.566Z,21.95
2019-03-22T02:08:24.175Z,21.96
2019-03-22T02:09:24.310Z,21.93
2019-03-22T02:10:27.793Z,21.92
2019-03-22T02:11:25.522Z,21.99
2019-03-22T02:12:24.808Z,21.91
2019-03-22T02:13:25.654Z,21.99
2019-03-22T02:14:24.263Z,21.96
2019-03-22T02:15:24.145Z,21.95
2019-03-22T02:16:28.780Z,21.95
2019-03-22T02:17:24.706Z,21.99
2019-03-22T02:18:24.193Z,21.95
2019-03-22T02:19:25.430Z,21.89
2019-03-22T02:20:24.058Z,21.89
2019-03-22T02:21:24.402Z,22.00
2019-03-22T02:22:24.178Z,21.98
2019-03-22T02:23:25.107Z,21.92
2019-03-22T02:24:25.405Z,21.96
2019-03-22T02:25:25.364Z,21.93
2019-03-22T02:26:25.504Z,21.91
2019-03-22T02:27:25.170Z,21.93
2019-03-22T02:28:26.849Z,21.85
2019-03-22T02:29:27.262Z,21.93
2019-03-22T02:30:23.869Z,21.95
2019-03-22T02:31:23.844Z,21.95
2019-03-22T02:32:25.367Z,21.95
2019-03-22T02:33:24.244Z,21.93
2019-03-22T02:34:27.264Z,21.96
2019-03-22T02:35:28.930Z,21.95
2019-03-22T02:36:25.322Z,21.92
2019-03-22T02:37:23.927Z,21.95
2019-03-22T02:38:24.718Z,21.98
2019-03-22T02:39:24.536Z,21.98
2019-03-22T02:40:25.233Z,21.91
2019-03-22T02:41:23.911Z,21.83
2019-03-22T02:42:23.998Z,21.91
2019-03-22T02:43:23.773Z,21.91
2019-03-22T02:44:25.165Z,21.92
2019-03-22T02:45:24.277Z,21.92
2019-03-22T02:46:27.712Z,21.95
2019-03-22T02:47:23.887Z,21.93
2019-03-22T02:48:24.370Z,21.93
2019-03-22T02:49:24.184Z,21.96
2019-03-22T02:50:27.899Z,21.89
2019-03-22T02:51:24.498Z,21.92
2019-03-22T02:52:25.660Z,21.85
2019-03-22T02:53:26.999Z,21.96
2019-03-22T02:54:24.545Z,21.91
2019-03-22T02:55:23.602Z,21.96
2019-03-22T02:56:27.426Z,21.95
2019-03-22T02:57:23.559Z,21.95
2019-03-22T02:58:28.257Z,21.89
2019-03-22T02:59:26.098Z,21.91
2019-03-22T03:00:24.136Z,21.96
2019-03-22T03:01:24.345Z,21.92
2019-03-22T03:02:23.654Z,21.92
2019-03-22T03:03:25.682Z,21.93
2019-03-22T03:04:23.815Z,21.88
2019-03-22T03:05:23.487Z,21.92
2019-03-22T03:06:25.315Z,21.92
2019-03-22T03:07:24.948Z,21.98
2019-03-22T03:08:27.187Z,21.95
2019-03-22T03:09:23.577Z,21.93
2019-03-22T03:10:23.918Z,21.85
2019-03-22T03:11:23.653Z,21.95
2019-03-22T03:12:23.402Z,21.82
2019-03-22T03:13:24.966Z,21.91
2019-03-22T03:14:25.368Z,21.88
2019-03-22T03:15:23.592Z,21.92
2019-03-22T03:16:27.935Z,21.95
2019-03-22T03:17:23.541Z,21.93
2019-03-22T03:18:24.072Z,21.92
2019-03-22T03:19:23.342Z,21.98
2019-03-22T03:20:23.850Z,21.92
2019-03-22T03:21:26.514Z,21.92
2019-03-22T03:22:25.966Z,21.85
2019-03-22T03:23:24.957Z,21.91
2019-03-22T03:24:23.264Z,21.92
2019-03-22T03:25:23.282Z,21.82
2019-03-22T03:26:26.456Z,21.80
2019-03-22T03:27:23.230Z,21.77
2019-03-22T03:28:36.090Z,21.93
2019-03-22T03:29:24.455Z,21.80
2019-03-22T03:30:23.403Z,21.91
2019-03-22T03:31:25.763Z,21.89
2019-03-22T03:32:24.656Z,21.76
2019-03-22T03:33:23.195Z,21.91
2019-03-22T03:34:26.672Z,21.91
2019-03-22T03:35:23.932Z,21.80
2019-03-22T03:36:26.941Z,21.85
2019-03-22T03:37:23.696Z,21.93
2019-03-22T03:38:23.912Z,21.85
2019-03-22T03:39:23.132Z,21.80
2019-03-22T03:40:26.217Z,21.80
2019-03-22T03:41:23.208Z,21.88
2019-03-22T03:42:23.749Z,21.95
2019-03-22T03:43:25.951Z,21.80
2019-03-22T03:44:23.131Z,21.82
2019-03-22T03:45:23.535Z,21.82
2019-03-22T03:46:27.497Z,21.95
2019-03-22T03:47:24.037Z,21.91
2019-03-22T03:48:23.801Z,21.80
2019-03-22T03:49:23.765Z,21.80
2019-03-22T03:50:23.089Z,21.77
2019-03-22T03:51:24.099Z,21.79
2019-03-22T03:52:24.753Z,21.82
2019-03-22T03:53:26.319Z,21.77
2019-03-22T03:54:25.488Z,21.83
2019-03-22T03:55:25.952Z,21.77
2019-03-22T03:56:23.367Z,21.96
2019-03-22T03:57:27.158Z,21.88
2019-03-22T03:58:25.215Z,21.85
2019-03-22T03:59:24.036Z,21.88
2019-03-22T04:00:23.963Z,21.92
2019-03-22T04:01:22.920Z,21.91
2019-03-22T04:02:22.848Z,21.92
2019-03-22T04:03:25.782Z,21.91
2019-03-22T04:04:24.517Z,21.83
2019-03-22T04:05:23.472Z,21.88
2019-03-22T04:06:24.208Z,21.89
2019-03-22T04:07:23.424Z,21.80
2019-03-22T04:08:22.897Z,21.79
2019-03-22T04:09:22.774Z,21.88
2019-03-22T04:10:27.033Z,21.83
2019-03-22T04:11:22.902Z,21.83
2019-03-22T04:12:23.194Z,21.80
2019-03-22T04:13:24.648Z,21.89
2019-03-22T04:14:23.553Z,21.88
2019-03-22T04:15:24.112Z,21.88
2019-03-22T04:16:24.534Z,21.83
2019-03-22T04:17:23.497Z,21.83
2019-03-22T04:18:22.683Z,21.88
2019-03-22T04:19:26.331Z,21.79
2019-03-22T04:20:23.179Z,21.83
2019-03-22T04:21:22.909Z,21.88
2019-03-22T04:22:27.888Z,21.91
2019-03-22T04:23:23.443Z,21.88
2019-03-22T04:24:25.296Z,21.82
2019-03-22T04:25:22.905Z,21.83
2019-03-22T04:26:22.719Z,21.91
2019-03-22T04:27:23.691Z,21.91
2019-03-22T04:28:22.941Z,21.82
2019-03-22T04:29:25.463Z,21.88
2019-03-22T04:30:22.962Z,21.88
2019-03-22T04:31:25.264Z,21.89
2019-03-22T04:32:24.434Z,21.85
2019-03-22T04:33:25.853Z,21.79
2019-03-22T04:34:22.757Z,21.83
2019-03-22T04:35:22.508Z,21.83
2019-03-22T04:36:25.349Z,21.85
2019-03-22T04:37:22.544Z,21.80
2019-03-22T04:38:26.551Z,21.83
2019-03-22T04:39:23.500Z,21.91
2019-03-22T04:40:23.902Z,21.88
2019-03-22T04:41:23.636Z,21.88
2019-03-22T04:42:24.209Z,21.85
2019-03-22T04:43:23.715Z,21.83
2019-03-22T04:44:22.436Z,21.92
2019-03-22T04:45:26.632Z,21.82
2019-03-22T04:46:26.574Z,21.82
2019-03-22T04:47:22.630Z,21.89
2019-03-22T04:48:22.343Z,21.89
2019-03-22T04:49:24.251Z,21.79
2019-03-22T04:50:22.962Z,21.83
2019-03-22T04:51:24.319Z,21.82
2019-03-22T04:52:22.855Z,21.82
2019-03-22T04:53:22.344Z,21.89
2019-03-22T04:54:22.586Z,21.80
2019-03-22T04:55:22.251Z,21.79
2019-03-22T04:56:22.254Z,21.91
2019-03-22T04:57:25.463Z,21.91
2019-03-22T04:58:22.551Z,21.82
2019-03-22T04:59:25.873Z,21.83
2019-03-22T05:00:22.999Z,21.85
2019-03-22T05:01:24.058Z,21.83
2019-03-22T05:02:22.851Z,21.76
2019-03-22T05:03:27.637Z,21.88
2019-03-22T05:04:23.940Z,21.83
2019-03-22T05:05:22.469Z,21.89
2019-03-22T05:06:22.388Z,21.80
2019-03-22T05:07:24.734Z,21.82
2019-03-22T05:08:24.132Z,21.88
2019-03-22T05:09:24.339Z,21.82
2019-03-22T05:10:22.084Z,21.79
2019-03-22T05:11:22.107Z,21.79
2019-03-22T05:12:22.293Z,21.80
2019-03-22T05:13:25.201Z,21.80
2019-03-22T05:14:22.136Z,21.83
2019-03-22T05:15:22.339Z,21.83
2019-03-22T05:16:22.223Z,21.82
2019-03-22T05:17:26.547Z,21.91
2019-03-22T05:18:23.431Z,21.82
2019-03-22T05:19:21.992Z,21.83
2019-03-22T05:20:22.096Z,21.85
2019-03-22T05:21:27.428Z,21.89
2019-03-22T05:22:22.024Z,21.85
2019-03-22T05:23:22.802Z,21.80
2019-03-22T05:24:22.049Z,21.82
2019-03-22T05:25:22.761Z,21.88
2019-03-22T05:26:25.126Z,21.88
2019-03-22T05:27:22.463Z,21.83
2019-03-22T05:28:22.453Z,21.82
2019-03-22T05:29:30.548Z,21.83
2019-03-22T05:30:22.912Z,21.82
2019-03-22T05:31:25.688Z,21.82
2019-03-22T05:32:22.690Z,21.89
2019-03-22T05:33:24.201Z,21.83
2019-03-22T05:34:21.967Z,21.79
2019-03-22T05:35:22.482Z,21.85
2019-03-22T05:36:23.683Z,21.89
2019-03-22T05:37:22.019Z,21.77
2019-03-22T05:38:22.381Z,21.80
2019-03-22T05:39:24.814Z,21.79
2019-03-22T05:40:21.753Z,21.83
2019-03-22T05:41:23.628Z,21.85
2019-03-22T05:42:25.189Z,21.89
2019-03-22T05:43:23.298Z,21.83
2019-03-22T05:44:22.437Z,21.88
2019-03-22T05:45:24.105Z,21.83
2019-03-22T05:46:21.827Z,21.85
2019-03-22T05:47:22.436Z,21.83
2019-03-22T05:48:28.214Z,21.79
2019-03-22T05:49:22.320Z,21.79
2019-03-22T05:50:25.257Z,21.85
2019-03-22T05:51:25.649Z,21.89
2019-03-22T05:52:22.474Z,21.88
2019-03-22T05:53:22.781Z,21.82
2019-03-22T05:54:22.268Z,21.88
2019-03-22T05:55:23.703Z,21.91
2019-03-22T05:56:24.368Z,21.85
2019-03-22T05:57:22.745Z,21.82
2019-03-22T05:58:26.744Z,21.83
2019-03-22T05:59:22.294Z,21.89
2019-03-22T06:00:22.057Z,21.91
2019-03-22T06:01:21.567Z,21.76
2019-03-22T06:02:23.249Z,21.72
2019-03-22T06:03:25.553Z,21.77
2019-03-22T06:04:23.210Z,21.80
2019-03-22T06:05:25.412Z,21.82
2019-03-22T06:06:22.984Z,21.88
2019-03-22T06:07:23.176Z,21.91
2019-03-22T06:08:23.283Z,21.80
2019-03-22T06:09:25.725Z,21.89
2019-03-22T06:10:22.769Z,21.88
2019-03-22T06:11:21.438Z,21.91
2019-03-22T06:12:22.626Z,21.82
2019-03-22T06:13:21.394Z,21.83
2019-03-22T06:14:22.954Z,21.91
2019-03-22T06:15:29.750Z,21.83
2019-03-22T06:16:22.903Z,21.89
2019-03-22T06:17:29.976Z,21.88
2019-03-22T06:18:22.843Z,21.88
2019-03-22T06:19:23.303Z,21.85
2019-03-22T06:20:23.593Z,21.89
2019-03-22T06:21:27.045Z,21.82
2019-03-22T06:22:22.809Z,21.92
2019-03-22T06:23:23.494Z,21.83
2019-03-22T06:24:23.581Z,21.91
2019-03-22T06:25:22.798Z,21.88
2019-03-22T06:26:26.180Z,21.79
2019-03-22T06:27:26.385Z,21.88
2019-03-22T06:28:21.235Z,21.82
2019-03-22T06:29:26.096Z,21.83
2019-03-22T06:30:22.973Z,21.82
2019-03-22T06:31:21.873Z,21.85
2019-03-22T06:32:21.836Z,21.88
2019-03-22T06:33:29.736Z,21.85
2019-03-22T06:34:24.409Z,21.88
2019-03-22T06:35:25.120Z,21.83
2019-03-22T06:36:24.142Z,21.80
2019-03-22T06:37:24.710Z,21.82
2019-03-22T06:38:24.143Z,21.83
2019-03-22T06:39:34.718Z,21.82
2019-03-22T06:40:25.173Z,21.80
2019-03-22T06:41:24.852Z,21.79
2019-03-22T06:42:22.678Z,21.85
2019-03-22T06:43:23.529Z,21.83
2019-03-22T06:44:24.482Z,21.88
2019-03-22T06:45:37.853Z,21.80
2019-03-22T06:46:22.044Z,21.88
2019-03-22T06:47:25.364Z,21.82
2019-03-22T06:48:25.196Z,21.88
2019-03-22T06:49:22.641Z,21.75
2019-03-22T06:50:23.262Z,21.88
2019-03-22T06:51:27.022Z,21.75
2019-03-22T06:52:23.259Z,21.79
2019-03-22T06:53:25.029Z,21.85
2019-03-22T06:54:31.526Z,21.85
2019-03-22T06:55:22.212Z,21.89
2019-03-22T06:56:23.336Z,21.85
2019-03-22T06:57:25.921Z,21.92
2019-03-22T06:58:20.898Z,21.83
2019-03-22T06:59:21.644Z,21.88
2019-03-22T07:00:20.947Z,21.79
2019-03-22T07:01:21.550Z,21.83
2019-03-22T07:02:20.843Z,21.82
2019-03-22T07:03:23.787Z,21.79
2019-03-22T07:04:20.838Z,21.85
2019-03-22T07:05:22.081Z,21.91
2019-03-22T07:06:20.812Z,21.83
2019-03-22T07:07:20.807Z,21.88
2019-03-22T07:08:20.789Z,21.92
2019-03-22T07:09:22.632Z,21.88
2019-03-22T07:10:22.402Z,21.88
2019-03-22T07:11:22.439Z,21.82
2019-03-22T07:12:21.861Z,21.80
2019-03-22T07:13:21.519Z,21.83
2019-03-22T07:14:20.770Z,21.80
2019-03-22T07:15:20.737Z,21.96
2019-03-22T07:16:20.721Z,21.83
2019-03-22T07:17:21.097Z,21.89
2019-03-22T07:18:21.264Z,21.91
2019-03-22T07:19:21.557Z,21.75
2019-03-22T07:20:30.282Z,21.89
2019-03-22T07:21:20.740Z,21.85
2019-03-22T07:22:21.356Z,21.89
2019-03-22T07:23:20.793Z,21.88
2019-03-22T07:24:23.655Z,21.75
2019-03-22T07:25:21.666Z,21.89
2019-03-22T07:26:22.730Z,21.85
2019-03-22T07:27:20.858Z,21.83
2019-03-22T07:28:22.390Z,21.82
2019-03-22T07:29:20.813Z,21.83
2019-03-22T07:30:21.596Z,21.96
2019-03-22T07:31:24.338Z,21.85
2019-03-22T07:32:20.508Z,21.80
2019-03-22T07:33:21.067Z,21.89
2019-03-22T07:34:20.485Z,21.82
2019-03-22T07:35:23.466Z,21.80
2019-03-22T07:36:20.560Z,21.89
2019-03-22T07:37:20.461Z,21.82
2019-03-22T07:38:20.468Z,21.82
2019-03-22T07:39:20.502Z,21.77
2019-03-22T07:40:27.747Z,21.82
2019-03-22T07:41:20.682Z,21.91
2019-03-22T07:42:23.335Z,21.88
2019-03-22T07:43:20.997Z,21.89
2019-03-22T07:44:20.390Z,21.83
2019-03-22T07:45:20.411Z,21.80
2019-03-22T07:46:26.242Z,21.88
2019-03-22T07:47:26.708Z,21.89
2019-03-22T07:48:24.287Z,21.82
2019-03-22T07:49:24.449Z,21.85
2019-03-22T07:50:22.570Z,21.88
2019-03-22T07:51:25.482Z,21.77
2019-03-22T07:52:22.405Z,21.88
2019-03-22T07:53:22.004Z,21.91
2019-03-22T07:54:23.297Z,21.88
2019-03-22T07:55:22.225Z,21.79
2019-03-22T07:56:21.317Z,21.93
2019-03-22T07:57:28.819Z,21.82
2019-03-22T07:58:21.160Z,21.88
2019-03-22T07:59:24.190Z,21.80
2019-03-22T08:00:30.570Z,21.89
2019-03-22T08:01:21.831Z,21.88
2019-03-22T08:02:20.359Z,21.91
2019-03-22T08:03:22.998Z,21.80
2019-03-22T08:04:21.366Z,21.82
2019-03-22T08:05:27.887Z,21.82
2019-03-22T08:06:20.511Z,21.85
2019-03-22T08:07:24.779Z,21.92
2019-03-22T08:08:22.795Z,21.80
2019-03-22T08:09:23.495Z,21.83
2019-03-22T08:10:22.027Z,21.92
2019-03-22T08:11:20.831Z,21.91
2019-03-22T08:12:30.900Z,21.80
2019-03-22T08:13:25.478Z,21.89
2019-03-22T08:14:22.124Z,21.82
2019-03-22T08:15:24.094Z,21.96
2019-03-22T08:16:25.795Z,21.95
2019-03-22T08:17:20.267Z,21.92
2019-03-22T08:18:28.196Z,21.98
2019-03-22T08:19:21.800Z,21.96
2019-03-22T08:21:34.867Z,21.98
2019-03-22T08:22:30.608Z,21.93
2019-03-22T08:25:00.289Z,21.91
2019-03-22T08:25:55.716Z,21.99
2019-03-22T08:26:59.936Z,22.02
2019-03-22T08:27:57.172Z,21.98
2019-03-22T08:28:55.199Z,21.96
2019-03-22T08:29:57.955Z,21.99
2019-03-22T08:30:58.110Z,21.96
2019-03-22T08:31:55.192Z,21.99
2019-03-22T08:33:03.686Z,21.93
2019-03-22T08:33:55.206Z,22.02
2019-03-22T08:34:55.316Z,21.93
2019-03-22T08:35:56.571Z,21.96
2019-03-22T08:36:56.490Z,21.96
2019-03-22T08:38:03.043Z,21.98
2019-03-22T08:38:57.812Z,22.06
2019-03-22T08:39:56.522Z,22.00
2019-03-22T08:40:56.945Z,21.99
2019-03-22T08:41:55.366Z,21.93
2019-03-22T08:42:56.291Z,21.95
2019-03-22T08:43:59.038Z,22.00
2019-03-22T08:44:55.117Z,21.96
2019-03-22T08:45:56.260Z,21.99
2019-03-22T08:46:56.149Z,22.06
2019-03-22T08:47:55.653Z,21.98
2019-03-22T08:48:57.474Z,21.98
2019-03-22T08:49:59.643Z,22.06
2019-03-22T08:50:56.613Z,22.04
2019-03-22T08:51:55.761Z,22.02
2019-03-22T08:52:56.077Z,22.06
2019-03-22T08:53:55.795Z,22.06
2019-03-22T08:56:19.356Z,21.98
2019-03-22T08:57:24.954Z,22.11
2019-03-22T09:00:04.354Z,22.11
2019-03-22T09:01:06.883Z,22.02
2019-03-22T09:02:04.794Z,22.02
2019-03-22T09:03:07.869Z,22.02
2019-03-22T09:04:05.023Z,22.00
2019-03-22T09:05:07.782Z,22.10
2019-03-22T09:06:03.834Z,22.08
2019-03-22T09:07:04.317Z,22.07
2019-03-22T09:08:08.980Z,22.04
2019-03-22T09:09:03.911Z,22.07
2019-03-22T09:10:05.043Z,22.10
2019-03-22T09:11:03.768Z,22.10
2019-03-22T09:12:04.350Z,22.10
2019-03-22T09:13:04.552Z,22.06
2019-03-22T09:14:04.820Z,22.14
2019-03-22T09:15:04.305Z,22.06
2019-03-22T09:16:03.908Z,22.04
2019-03-22T09:17:03.686Z,22.07
2019-03-22T09:19:05.534Z,22.10
2019-03-22T09:20:05.938Z,22.06
2019-03-22T09:21:03.690Z,22.08
2019-03-22T09:22:03.797Z,22.17
2019-03-22T09:23:03.969Z,22.06
2019-03-22T09:24:06.734Z,22.08
2019-03-22T09:25:04.577Z,22.10
2019-03-22T09:26:03.856Z,22.11
2019-03-22T09:27:03.828Z,22.17
2019-03-22T09:28:06.269Z,22.18
2019-03-22T09:29:03.578Z,22.10
2019-03-22T09:30:09.001Z,22.08
2019-03-22T09:31:11.684Z,22.13
2019-03-22T09:32:04.039Z,22.08
2019-03-22T09:33:03.596Z,22.13
2019-03-22T09:34:05.115Z,22.20
2019-03-22T09:35:04.953Z,22.10
2019-03-22T09:36:08.812Z,22.13
2019-03-22T09:37:11.030Z,22.13
2019-03-22T09:38:12.731Z,22.14
2019-03-22T09:39:06.914Z,22.11
2019-03-22T09:40:09.799Z,22.17
2019-03-22T09:41:05.929Z,22.10
2019-03-22T09:42:18.767Z,22.07
2019-03-22T09:43:12.440Z,22.06
2019-03-22T09:44:04.761Z,22.08
2019-03-22T09:45:06.428Z,22.18
2019-03-22T09:46:07.867Z,22.11
2019-03-22T09:47:04.665Z,22.07
2019-03-22T09:48:07.418Z,22.06
2019-03-22T09:49:13.407Z,22.14
2019-03-22T09:50:05.678Z,22.20
2019-03-22T09:51:05.008Z,22.04
2019-03-22T09:52:06.078Z,22.14
2019-03-22T09:53:05.564Z,22.08
2019-03-22T09:54:03.585Z,22.07
2019-03-22T09:55:13.196Z,22.10
2019-03-22T09:56:06.385Z,22.15
2019-03-22T09:57:05.076Z,22.17
2019-03-22T09:58:03.568Z,22.10
2019-03-22T09:59:05.406Z,22.13
2019-03-22T10:00:03.977Z,22.13
2019-03-22T10:01:05.126Z,22.14
2019-03-22T10:02:04.841Z,22.17
2019-03-22T10:03:05.031Z,22.07
2019-03-22T10:04:03.800Z,22.17
2019-03-22T10:05:07.436Z,22.15
2019-03-22T10:06:05.573Z,22.20
2019-03-22T10:07:09.452Z,22.17
2019-03-22T10:08:03.813Z,22.07
2019-03-22T10:09:06.457Z,22.14
2019-03-22T10:10:06.951Z,22.14
2019-03-22T10:11:04.110Z,22.20
2019-03-22T10:12:05.261Z,22.10
2019-03-22T10:13:04.713Z,22.11
2019-03-22T10:14:07.623Z,22.17
2019-03-22T10:15:07.744Z,22.11
2019-03-22T10:16:02.995Z,22.22
2019-03-22T10:17:03.062Z,22.11
2019-03-22T10:18:03.498Z,22.15
2019-03-22T10:19:06.383Z,22.15
2019-03-22T10:20:03.194Z,22.20
2019-03-22T10:21:04.730Z,22.25
2019-03-22T10:22:04.098Z,22.13
2019-03-22T10:23:04.315Z,22.26
2019-03-22T10:24:02.924Z,22.26
2019-03-22T10:25:03.191Z,22.22
2019-03-22T10:26:02.894Z,22.15
2019-03-22T10:27:05.203Z,22.13
2019-03-22T10:28:04.501Z,22.14
2019-03-22T10:29:06.963Z,22.23
2019-03-22T10:35:25.947Z,22.15
2019-03-22T10:36:19.364Z,22.13
2019-03-22T10:37:14.048Z,22.13
2019-03-22T10:38:30.852Z,22.25
2019-03-22T10:39:15.335Z,22.29
2019-03-22T10:40:22.498Z,22.25
2019-03-22T10:41:14.959Z,22.30
2019-03-22T10:42:14.665Z,22.23
2019-03-22T10:43:13.720Z,22.22
2019-03-22T10:44:14.393Z,22.23
2019-03-22T10:45:14.144Z,22.23
2019-03-22T10:46:16.806Z,22.23
2019-03-22T10:47:18.093Z,22.23
2019-03-22T10:48:14.781Z,22.23
2019-03-22T10:49:16.429Z,22.18
2019-03-22T10:50:17.700Z,22.22
2019-03-22T10:51:13.958Z,22.20
2019-03-22T10:52:18.669Z,22.25
2019-03-22T10:53:14.615Z,22.20
2019-03-22T10:54:14.665Z,22.28
2019-03-22T10:55:28.930Z,22.26
2019-03-22T10:56:15.039Z,22.18
2019-03-22T10:57:14.082Z,22.22
2019-03-22T10:58:21.338Z,22.26
2019-03-22T10:59:16.206Z,22.26
2019-03-22T11:00:14.162Z,22.22
2019-03-22T11:01:21.481Z,22.25
2019-03-22T11:02:16.521Z,22.23
2019-03-22T11:03:13.505Z,22.28
2019-03-22T11:04:16.475Z,22.23
2019-03-22T11:05:14.225Z,22.28
2019-03-22T11:06:13.995Z,22.20
2019-03-22T11:07:13.478Z,22.30
2019-03-22T11:08:13.453Z,22.22
2019-03-22T11:09:14.697Z,22.22
2019-03-22T11:10:24.664Z,22.23
2019-03-22T11:11:15.501Z,22.29
2019-03-22T11:12:14.433Z,22.23
2019-03-22T11:13:16.286Z,22.29
2019-03-22T11:14:14.389Z,22.25
2019-03-22T11:15:14.005Z,22.29
2019-03-22T11:16:21.101Z,22.28
2019-03-22T11:17:13.403Z,22.25
2019-03-22T11:18:15.184Z,22.25
2019-03-22T11:19:14.647Z,22.18
2019-03-22T11:20:15.120Z,22.29
2019-03-22T11:21:13.811Z,22.22
2019-03-22T11:22:18.287Z,22.18
2019-03-22T11:23:13.843Z,22.28
2019-03-22T11:24:13.978Z,22.22
2019-03-22T11:25:13.270Z,22.28
2019-03-22T11:26:14.235Z,22.25
2019-03-22T11:27:13.960Z,22.23
2019-03-22T11:28:13.398Z,22.25
2019-03-22T11:29:13.889Z,22.22
2019-03-22T11:30:14.565Z,22.28
2019-03-22T11:31:14.848Z,22.32
2019-03-22T11:32:13.529Z,22.35
2019-03-22T11:33:15.283Z,22.29
2019-03-22T11:34:33.668Z,22.28
2019-03-22T11:35:16.039Z,22.30
2019-03-22T11:36:14.539Z,22.22
2019-03-22T11:37:21.295Z,22.32
2019-03-22T11:38:17.403Z,22.15
2019-03-22T11:39:16.213Z,22.25
2019-03-22T11:40:17.696Z,22.29
2019-03-22T11:41:18.531Z,22.25
2019-03-22T11:42:14.080Z,22.33
2019-03-22T11:43:15.071Z,22.23
2019-03-22T11:44:14.556Z,22.29
2019-03-22T11:45:15.520Z,22.33
2019-03-22T11:46:15.120Z,22.30
2019-03-22T11:47:13.012Z,22.25
2019-03-22T11:48:14.905Z,22.29
2019-03-22T11:49:14.924Z,22.18
2019-03-22T11:50:14.615Z,22.35
2019-03-22T11:51:14.739Z,22.36
2019-03-22T11:52:15.641Z,22.23
2019-03-22T11:53:12.984Z,22.23
2019-03-22T11:54:14.806Z,22.33
2019-03-22T11:55:14.320Z,22.25
2019-03-22T11:56:12.918Z,22.32
2019-03-22T11:57:12.992Z,22.25
2019-03-22T11:58:19.775Z,22.30
2019-03-22T11:59:14.047Z,22.30
2019-03-22T12:00:16.428Z,22.23
2019-03-22T12:01:19.645Z,22.29
2019-03-22T12:02:22.091Z,22.26
2019-03-22T12:03:14.638Z,22.25
2019-03-22T12:04:14.875Z,22.29
2019-03-22T12:05:12.836Z,22.26
2019-03-22T12:06:13.022Z,22.28
2019-03-22T12:07:15.033Z,22.33
2019-03-22T12:08:12.807Z,22.32
2019-03-22T12:09:13.274Z,22.32
2019-03-22T12:10:12.790Z,22.32
2019-03-22T12:11:12.931Z,22.22
2019-03-22T12:12:12.742Z,22.29
2019-03-22T12:13:12.750Z,22.28
2019-03-22T12:14:14.887Z,22.33
2019-03-22T12:15:14.566Z,22.25
2019-03-22T12:16:13.889Z,22.33
2019-03-22T12:17:14.150Z,22.20
2019-03-22T12:18:12.686Z,22.29
2019-03-22T12:19:14.105Z,22.28
2019-03-22T12:20:15.542Z,22.25
2019-03-22T12:21:14.405Z,22.33
2019-03-22T12:22:15.631Z,22.28
2019-03-22T12:23:13.198Z,22.28
2019-03-22T12:24:12.674Z,22.30
2019-03-22T12:25:13.074Z,22.25
2019-03-22T12:26:12.583Z,22.32
2019-03-22T12:27:12.574Z,22.28
2019-03-22T12:28:17.221Z,22.23
2019-03-22T12:29:12.568Z,22.35
2019-03-22T12:30:19.436Z,22.35
2019-03-22T12:31:13.266Z,22.23
2019-03-22T12:32:14.529Z,22.25
2019-03-22T12:33:16.423Z,22.36
2019-03-22T12:34:14.855Z,22.29
2019-03-22T12:35:16.675Z,22.26
2019-03-22T12:36:18.015Z,22.36
2019-03-22T12:37:14.023Z,22.32
2019-03-22T12:38:13.199Z,22.26
2019-03-22T12:39:13.306Z,22.32
2019-03-22T12:40:16.476Z,22.28
2019-03-22T12:41:14.307Z,22.35
2019-03-22T12:42:14.199Z,22.33
2019-03-22T12:43:13.509Z,22.22
2019-03-22T12:44:15.276Z,22.33
2019-03-22T12:45:17.119Z,22.41
2019-03-22T12:46:17.795Z,22.30
2019-03-22T12:47:13.601Z,22.29
2019-03-22T12:48:13.206Z,22.28
2019-03-22T12:49:18.652Z,22.29
2019-03-22T12:50:12.705Z,22.23
2019-03-22T12:51:15.000Z,22.29
2019-03-22T12:52:18.642Z,22.23
2019-03-22T12:53:13.212Z,22.33
2019-03-22T12:54:14.799Z,22.30
2019-03-22T12:55:13.552Z,22.23
2019-03-22T12:56:15.255Z,22.33
2019-03-22T12:57:13.426Z,22.32
2019-03-22T12:58:36.656Z,22.23
2019-03-22T12:59:15.993Z,22.36
2019-03-22T13:00:13.858Z,22.33
2019-03-22T13:01:13.601Z,22.28
2019-03-22T13:02:17.788Z,22.22
2019-03-22T13:03:13.259Z,22.33
2019-03-22T13:04:17.118Z,22.36